sensor_id;sensor_type;location;lat;lon;timestamp;temperature;humidity
53802;DHT22;39709;53.334;6.534;2024-03-02T00:02:19;5.80;99.90
53802;DHT22;39709;53.334;6.534;2024-03-02T00:04:45;9.10;99.90
53802;DHT22;39709;53.334;6.534;2024-03-02T00:07:14;6.30;99.90
53802;DHT22;39709;53.334;6.534;2024-03-02T00:09:40;8.00;99.90
53802;DHT22;39709;53.334;6.534;2024-03-02T00:12:06;6.20;99.90
53802;DHT22;39709;53.334;6.534;2024-03-02T00:14:32;7.20;99.90
53802;DHT22;39709;53.334;6.534;2024-03-02T00:16:58;6.30;99.90
53802;DHT22;39709;53.334;6.534;2024-03-02T00:19:24;6.00;99.90
53802;DHT22;39709;53.334;6.534;2024-03-02T00:21:50;5.90;99.90
53802;DHT22;39709;53.334;6.534;2024-03-02T00:24:32;6.30;99.90
53802;DHT22;39709;53.334;6.534;2024-03-02T00:26:59;6.30;99.90
53802;DHT22;39709;53.334;6.534;2024-03-02T00:29:25;6.80;99.90
53802;DHT22;39709;53.334;6.534;2024-03-02T00:31:51;6.30;99.90
53802;DHT22;39709;53.334;6.534;2024-03-02T00:34:17;7.70;99.90
53802;DHT22;39709;53.334;6.534;2024-03-02T00:36:43;5.80;99.90
53802;DHT22;39709;53.334;6.534;2024-03-02T00:39:12;5.90;99.90
53802;DHT22;39709;53.334;6.534;2024-03-02T00:41:41;6.90;99.90
53802;DHT22;39709;53.334;6.534;2024-03-02T00:44:12;6.60;99.90
53802;DHT22;39709;53.334;6.534;2024-03-02T00:46:42;6.00;99.90
53802;DHT22;39709;53.334;6.534;2024-03-02T00:49:21;6.00;99.90
53802;DHT22;39709;53.334;6.534;2024-03-02T00:51:48;6.40;99.90
53802;DHT22;39709;53.334;6.534;2024-03-02T00:54:15;7.80;99.90
53802;DHT22;39709;53.334;6.534;2024-03-02T00:56:41;5.90;99.90
53802;DHT22;39709;53.334;6.534;2024-03-02T00:59:07;6.70;99.90
53802;DHT22;39709;53.334;6.534;2024-03-02T01:01:34;5.70;99.90
53802;DHT22;39709;53.334;6.534;2024-03-02T01:04:00;6.10;99.90
53802;DHT22;39709;53.334;6.534;2024-03-02T01:06:25;5.70;99.90
53802;DHT22;39709;53.334;6.534;2024-03-02T01:08:51;6.60;99.90
53802;DHT22;39709;53.334;6.534;2024-03-02T01:11:17;5.90;99.90
53802;DHT22;39709;53.334;6.534;2024-03-02T01:13:44;5.80;99.90
53802;DHT22;39709;53.334;6.534;2024-03-02T01:16:10;5.50;99.90
53802;DHT22;39709;53.334;6.534;2024-03-02T01:18:36;5.60;99.90
53802;DHT22;39709;53.334;6.534;2024-03-02T01:21:01;5.80;99.90
53802;DHT22;39709;53.334;6.534;2024-03-02T01:23:27;6.20;99.90
53802;DHT22;39709;53.334;6.534;2024-03-02T01:25:53;5.80;99.90
53802;DHT22;39709;53.334;6.534;2024-03-02T01:28:19;6.00;99.90
53802;DHT22;39709;53.334;6.534;2024-03-02T01:30:46;6.70;99.90
53802;DHT22;39709;53.334;6.534;2024-03-02T01:33:12;6.40;99.90
53802;DHT22;39709;53.334;6.534;2024-03-02T01:35:38;6.00;99.90
53802;DHT22;39709;53.334;6.534;2024-03-02T01:38:04;6.00;99.90
53802;DHT22;39709;53.334;6.534;2024-03-02T01:40:36;7.50;99.90
53802;DHT22;39709;53.334;6.534;2024-03-02T01:43:04;4.20;99.90
53802;DHT22;39709;53.334;6.534;2024-03-02T01:45:29;6.30;99.90
53802;DHT22;39709;53.334;6.534;2024-03-02T01:47:55;6.00;99.90
53802;DHT22;39709;53.334;6.534;2024-03-02T01:50:29;6.00;99.90
53802;DHT22;39709;53.334;6.534;2024-03-02T01:52:56;6.90;99.90
53802;DHT22;39709;53.334;6.534;2024-03-02T01:55:22;8.20;99.90
53802;DHT22;39709;53.334;6.534;2024-03-02T01:57:48;7.50;99.90
53802;DHT22;39709;53.334;6.534;2024-03-02T02:00:15;6.00;99.90
53802;DHT22;39709;53.334;6.534;2024-03-02T02:02:41;7.50;99.90
53802;DHT22;39709;53.334;6.534;2024-03-02T02:05:07;6.20;99.90
53802;DHT22;39709;53.334;6.534;2024-03-02T02:07:33;6.10;99.90
53802;DHT22;39709;53.334;6.534;2024-03-02T02:10:00;5.70;99.90
53802;DHT22;39709;53.334;6.534;2024-03-02T02:12:26;6.20;99.90
53802;DHT22;39709;53.334;6.534;2024-03-02T02:14:52;6.40;99.90
53802;DHT22;39709;53.334;6.534;2024-03-02T02:17:18;6.20;99.90
53802;DHT22;39709;53.334;6.534;2024-03-02T02:19:44;6.10;99.90
53802;DHT22;39709;53.334;6.534;2024-03-02T02:22:10;6.00;99.90
53802;DHT22;39709;53.334;6.534;2024-03-02T02:24:39;6.00;99.90
53802;DHT22;39709;53.334;6.534;2024-03-02T02:27:05;5.90;99.90
53802;DHT22;39709;53.334;6.534;2024-03-02T02:29:30;5.80;99.90
53802;DHT22;39709;53.334;6.534;2024-03-02T02:31:56;7.70;99.90
53802;DHT22;39709;53.334;6.534;2024-03-02T02:34:22;9.40;99.90
53802;DHT22;39709;53.334;6.534;2024-03-02T02:36:47;6.60;99.90
53802;DHT22;39709;53.334;6.534;2024-03-02T02:39:16;6.10;99.90
53802;DHT22;39709;53.334;6.534;2024-03-02T02:41:42;6.00;99.90
53802;DHT22;39709;53.334;6.534;2024-03-02T02:44:08;5.90;99.90
53802;DHT22;39709;53.334;6.534;2024-03-02T02:46:34;6.10;99.90
53802;DHT22;39709;53.334;6.534;2024-03-02T02:49:02;7.70;99.90
53802;DHT22;39709;53.334;6.534;2024-03-02T02:51:28;5.90;99.90
53802;DHT22;39709;53.334;6.534;2024-03-02T02:53:53;6.30;99.90
53802;DHT22;39709;53.334;6.534;2024-03-02T02:56:19;7.10;99.90
53802;DHT22;39709;53.334;6.534;2024-03-02T02:58:45;7.50;99.90
53802;DHT22;39709;53.334;6.534;2024-03-02T03:01:10;6.30;99.90
53802;DHT22;39709;53.334;6.534;2024-03-02T03:03:36;8.20;99.90
53802;DHT22;39709;53.334;6.534;2024-03-02T03:06:02;6.70;99.90
53802;DHT22;39709;53.334;6.534;2024-03-02T03:08:28;7.90;99.90
53802;DHT22;39709;53.334;6.534;2024-03-02T03:10:54;7.80;99.90
53802;DHT22;39709;53.334;6.534;2024-03-02T03:13:20;6.20;99.90
53802;DHT22;39709;53.334;6.534;2024-03-02T03:15:45;6.30;99.90
53802;DHT22;39709;53.334;6.534;2024-03-02T03:18:11;8.70;99.90
53802;DHT22;39709;53.334;6.534;2024-03-02T03:20:37;6.40;99.90
53802;DHT22;39709;53.334;6.534;2024-03-02T03:23:03;7.60;99.90
53802;DHT22;39709;53.334;6.534;2024-03-02T03:25:32;6.70;99.90
53802;DHT22;39709;53.334;6.534;2024-03-02T03:27:58;6.40;99.90
53802;DHT22;39709;53.334;6.534;2024-03-02T03:30:24;6.40;99.90
53802;DHT22;39709;53.334;6.534;2024-03-02T03:32:49;6.30;99.90
53802;DHT22;39709;53.334;6.534;2024-03-02T03:35:15;6.60;99.90
53802;DHT22;39709;53.334;6.534;2024-03-02T03:37:41;8.20;99.90
53802;DHT22;39709;53.334;6.534;2024-03-02T03:40:07;6.80;99.90
53802;DHT22;39709;53.334;6.534;2024-03-02T03:42:36;6.30;99.90
53802;DHT22;39709;53.334;6.534;2024-03-02T03:45:02;6.10;99.90
53802;DHT22;39709;53.334;6.534;2024-03-02T03:47:28;6.50;99.90
53802;DHT22;39709;53.334;6.534;2024-03-02T03:49:54;6.10;99.90
53802;DHT22;39709;53.334;6.534;2024-03-02T03:52:19;5.90;99.90
53802;DHT22;39709;53.334;6.534;2024-03-02T03:54:46;8.30;99.90
53802;DHT22;39709;53.334;6.534;2024-03-02T03:57:12;6.60;99.90
53802;DHT22;39709;53.334;6.534;2024-03-02T03:59:37;6.00;99.90
53802;DHT22;39709;53.334;6.534;2024-03-02T04:02:03;6.00;99.90
53802;DHT22;39709;53.334;6.534;2024-03-02T04:04:29;5.70;99.90
53802;DHT22;39709;53.334;6.534;2024-03-02T04:06:55;6.00;99.90
53802;DHT22;39709;53.334;6.534;2024-03-02T04:09:21;9.40;99.90
53802;DHT22;39709;53.334;6.534;2024-03-02T04:11:47;6.50;99.90
53802;DHT22;39709;53.334;6.534;2024-03-02T04:14:12;5.60;99.90
53802;DHT22;39709;53.334;6.534;2024-03-02T04:16:38;6.30;99.90
53802;DHT22;39709;53.334;6.534;2024-03-02T04:19:04;5.80;99.90
53802;DHT22;39709;53.334;6.534;2024-03-02T04:21:30;7.50;99.90
53802;DHT22;39709;53.334;6.534;2024-03-02T04:23:56;6.10;99.90
53802;DHT22;39709;53.334;6.534;2024-03-02T04:26:25;5.80;99.90
53802;DHT22;39709;53.334;6.534;2024-03-02T04:28:51;5.80;99.90
53802;DHT22;39709;53.334;6.534;2024-03-02T04:31:17;9.50;99.90
53802;DHT22;39709;53.334;6.534;2024-03-02T04:33:43;9.40;99.90
53802;DHT22;39709;53.334;6.534;2024-03-02T04:36:09;5.80;99.90
53802;DHT22;39709;53.334;6.534;2024-03-02T04:38:35;6.00;99.90
53802;DHT22;39709;53.334;6.534;2024-03-02T04:41:01;9.20;99.90
53802;DHT22;39709;53.334;6.534;2024-03-02T04:43:27;6.80;99.90
53802;DHT22;39709;53.334;6.534;2024-03-02T04:45:52;7.50;99.90
53802;DHT22;39709;53.334;6.534;2024-03-02T04:48:18;6.00;99.90
53802;DHT22;39709;53.334;6.534;2024-03-02T04:50:45;7.40;99.90
53802;DHT22;39709;53.334;6.534;2024-03-02T04:53:11;9.30;99.90
53802;DHT22;39709;53.334;6.534;2024-03-02T04:55:36;7.20;99.90
53802;DHT22;39709;53.334;6.534;2024-03-02T04:58:05;6.70;99.90
53802;DHT22;39709;53.334;6.534;2024-03-02T05:00:32;5.90;99.90
53802;DHT22;39709;53.334;6.534;2024-03-02T05:02:57;6.00;99.90
53802;DHT22;39709;53.334;6.534;2024-03-02T05:05:23;5.90;99.90
53802;DHT22;39709;53.334;6.534;2024-03-02T05:07:49;4.20;99.90
53802;DHT22;39709;53.334;6.534;2024-03-02T05:10:15;6.60;99.90
53802;DHT22;39709;53.334;6.534;2024-03-02T05:12:41;5.60;99.90
53802;DHT22;39709;53.334;6.534;2024-03-02T05:15:11;6.00;99.90
53802;DHT22;39709;53.334;6.534;2024-03-02T05:17:37;6.10;99.90
53802;DHT22;39709;53.334;6.534;2024-03-02T05:20:06;5.90;99.90
53802;DHT22;39709;53.334;6.534;2024-03-02T05:22:39;6.00;99.90
53802;DHT22;39709;53.334;6.534;2024-03-02T05:25:05;8.00;99.90
53802;DHT22;39709;53.334;6.534;2024-03-02T05:27:32;6.20;99.90
53802;DHT22;39709;53.334;6.534;2024-03-02T05:29:58;7.30;99.90
53802;DHT22;39709;53.334;6.534;2024-03-02T05:32:24;6.00;99.90
53802;DHT22;39709;53.334;6.534;2024-03-02T05:34:50;5.90;99.90
53802;DHT22;39709;53.334;6.534;2024-03-02T05:37:18;7.20;99.90
53802;DHT22;39709;53.334;6.534;2024-03-02T05:39:44;7.50;99.90
53802;DHT22;39709;53.334;6.534;2024-03-02T05:42:10;5.80;99.90
53802;DHT22;39709;53.334;6.534;2024-03-02T05:44:36;9.30;99.90
53802;DHT22;39709;53.334;6.534;2024-03-02T05:47:02;5.80;99.90
53802;DHT22;39709;53.334;6.534;2024-03-02T05:49:28;5.80;99.90
53802;DHT22;39709;53.334;6.534;2024-03-02T05:51:54;6.40;99.90
53802;DHT22;39709;53.334;6.534;2024-03-02T05:54:20;6.50;99.90
53802;DHT22;39709;53.334;6.534;2024-03-02T05:56:45;5.60;99.90
53802;DHT22;39709;53.334;6.534;2024-03-02T05:59:11;6.10;99.90
53802;DHT22;39709;53.334;6.534;2024-03-02T06:01:43;6.80;99.90
53802;DHT22;39709;53.334;6.534;2024-03-02T06:04:13;6.20;99.90
53802;DHT22;39709;53.334;6.534;2024-03-02T06:06:42;6.10;99.90
53802;DHT22;39709;53.334;6.534;2024-03-02T06:09:08;6.00;99.90
53802;DHT22;39709;53.334;6.534;2024-03-02T06:11:38;7.70;99.90
53802;DHT22;39709;53.334;6.534;2024-03-02T06:14:04;7.30;99.90
53802;DHT22;39709;53.334;6.534;2024-03-02T06:16:30;5.90;99.90
53802;DHT22;39709;53.334;6.534;2024-03-02T06:18:56;5.90;99.90
53802;DHT22;39709;53.334;6.534;2024-03-02T06:21:23;6.70;99.90
53802;DHT22;39709;53.334;6.534;2024-03-02T06:23:49;7.60;99.90
53802;DHT22;39709;53.334;6.534;2024-03-02T06:26:15;6.30;99.90
53802;DHT22;39709;53.334;6.534;2024-03-02T06:28:41;7.10;99.90
53802;DHT22;39709;53.334;6.534;2024-03-02T06:31:07;6.70;99.90
53802;DHT22;39709;53.334;6.534;2024-03-02T06:33:32;6.10;99.90
53802;DHT22;39709;53.334;6.534;2024-03-02T06:35:58;7.40;99.90
53802;DHT22;39709;53.334;6.534;2024-03-02T06:38:24;5.90;99.90
53802;DHT22;39709;53.334;6.534;2024-03-02T06:40:49;6.40;99.90
53802;DHT22;39709;53.334;6.534;2024-03-02T06:43:15;6.00;99.90
53802;DHT22;39709;53.334;6.534;2024-03-02T06:45:41;5.80;99.90
53802;DHT22;39709;53.334;6.534;2024-03-02T06:48:07;7.20;99.90
53802;DHT22;39709;53.334;6.534;2024-03-02T06:50:33;6.10;99.90
53802;DHT22;39709;53.334;6.534;2024-03-02T06:52:58;7.20;99.90
53802;DHT22;39709;53.334;6.534;2024-03-02T06:55:24;7.30;99.90
53802;DHT22;39709;53.334;6.534;2024-03-02T06:57:50;6.90;99.90
53802;DHT22;39709;53.334;6.534;2024-03-02T07:00:17;6.40;99.90
53802;DHT22;39709;53.334;6.534;2024-03-02T07:02:44;7.00;99.90
53802;DHT22;39709;53.334;6.534;2024-03-02T07:05:10;6.80;99.90
53802;DHT22;39709;53.334;6.534;2024-03-02T07:07:37;6.60;99.90
53802;DHT22;39709;53.334;6.534;2024-03-02T07:10:06;7.40;99.90
53802;DHT22;39709;53.334;6.534;2024-03-02T07:12:33;6.30;99.90
53802;DHT22;39709;53.334;6.534;2024-03-02T07:14:58;6.80;99.90
53802;DHT22;39709;53.334;6.534;2024-03-02T07:17:31;8.60;99.90
53802;DHT22;39709;53.334;6.534;2024-03-02T07:19:57;8.20;99.90
53802;DHT22;39709;53.334;6.534;2024-03-02T07:22:23;6.80;99.90
53802;DHT22;39709;53.334;6.534;2024-03-02T07:24:49;7.80;99.90
53802;DHT22;39709;53.334;6.534;2024-03-02T07:27:15;8.70;99.90
53802;DHT22;39709;53.334;6.534;2024-03-02T07:29:42;6.70;99.90
53802;DHT22;39709;53.334;6.534;2024-03-02T07:32:09;6.20;99.90
53802;DHT22;39709;53.334;6.534;2024-03-02T07:34:35;6.50;99.90
53802;DHT22;39709;53.334;6.534;2024-03-02T07:37:01;6.80;99.90
53802;DHT22;39709;53.334;6.534;2024-03-02T07:39:27;7.30;99.90
53802;DHT22;39709;53.334;6.534;2024-03-02T07:41:53;7.30;99.90
53802;DHT22;39709;53.334;6.534;2024-03-02T07:44:19;7.20;99.90
53802;DHT22;39709;53.334;6.534;2024-03-02T07:46:46;8.30;99.90
53802;DHT22;39709;53.334;6.534;2024-03-02T07:49:12;8.50;99.90
53802;DHT22;39709;53.334;6.534;2024-03-02T07:51:42;7.10;99.90
53802;DHT22;39709;53.334;6.534;2024-03-02T07:54:07;9.40;99.90
53802;DHT22;39709;53.334;6.534;2024-03-02T07:56:34;8.30;99.90
53802;DHT22;39709;53.334;6.534;2024-03-02T07:59:00;7.10;99.90
53802;DHT22;39709;53.334;6.534;2024-03-02T08:01:31;7.40;99.90
53802;DHT22;39709;53.334;6.534;2024-03-02T08:04:01;7.20;99.90
53802;DHT22;39709;53.334;6.534;2024-03-02T08:06:29;7.60;99.90
53802;DHT22;39709;53.334;6.534;2024-03-02T08:08:56;7.10;99.90
53802;DHT22;39709;53.334;6.534;2024-03-02T08:11:23;7.00;99.90
53802;DHT22;39709;53.334;6.534;2024-03-02T08:13:48;8.10;99.90
53802;DHT22;39709;53.334;6.534;2024-03-02T08:16:18;8.10;99.90
53802;DHT22;39709;53.334;6.534;2024-03-02T08:18:48;7.40;99.90
53802;DHT22;39709;53.334;6.534;2024-03-02T08:21:13;7.20;99.90
53802;DHT22;39709;53.334;6.534;2024-03-02T08:23:40;8.30;99.90
53802;DHT22;39709;53.334;6.534;2024-03-02T08:26:08;7.40;99.90
53802;DHT22;39709;53.334;6.534;2024-03-02T08:28:34;7.60;99.90
53802;DHT22;39709;53.334;6.534;2024-03-02T08:30:59;7.10;99.90
53802;DHT22;39709;53.334;6.534;2024-03-02T08:33:25;7.40;99.90
53802;DHT22;39709;53.334;6.534;2024-03-02T08:35:51;7.40;99.90
53802;DHT22;39709;53.334;6.534;2024-03-02T08:38:17;7.10;99.90
53802;DHT22;39709;53.334;6.534;2024-03-02T08:40:44;7.60;99.90
53802;DHT22;39709;53.334;6.534;2024-03-02T08:43:09;7.60;99.90
53802;DHT22;39709;53.334;6.534;2024-03-02T08:45:35;7.30;99.90
53802;DHT22;39709;53.334;6.534;2024-03-02T08:48:01;8.40;99.90
53802;DHT22;39709;53.334;6.534;2024-03-02T08:50:27;9.50;99.90
53802;DHT22;39709;53.334;6.534;2024-03-02T08:52:52;8.30;99.90
53802;DHT22;39709;53.334;6.534;2024-03-02T08:55:18;7.70;99.90
53802;DHT22;39709;53.334;6.534;2024-03-02T08:57:44;7.40;99.90
53802;DHT22;39709;53.334;6.534;2024-03-02T09:00:10;9.50;99.90
53802;DHT22;39709;53.334;6.534;2024-03-02T09:02:36;8.10;99.90
53802;DHT22;39709;53.334;6.534;2024-03-02T09:05:02;9.20;99.90
53802;DHT22;39709;53.334;6.534;2024-03-02T09:07:27;8.00;99.90
53802;DHT22;39709;53.334;6.534;2024-03-02T09:09:53;7.80;99.90
53802;DHT22;39709;53.334;6.534;2024-03-02T09:12:19;8.00;99.90
53802;DHT22;39709;53.334;6.534;2024-03-02T09:14:45;10.50;99.90
53802;DHT22;39709;53.334;6.534;2024-03-02T09:17:12;8.40;99.90
53802;DHT22;39709;53.334;6.534;2024-03-02T09:19:40;9.00;99.90
53802;DHT22;39709;53.334;6.534;2024-03-02T09:22:05;8.90;99.90
53802;DHT22;39709;53.334;6.534;2024-03-02T09:24:34;11.60;99.90
53802;DHT22;39709;53.334;6.534;2024-03-02T09:26:59;9.90;99.90
53802;DHT22;39709;53.334;6.534;2024-03-02T09:29:25;9.60;99.90
53802;DHT22;39709;53.334;6.534;2024-03-02T09:31:51;8.30;99.90
53802;DHT22;39709;53.334;6.534;2024-03-02T09:34:17;8.50;99.90
53802;DHT22;39709;53.334;6.534;2024-03-02T09:36:43;8.60;99.90
53802;DHT22;39709;53.334;6.534;2024-03-02T09:39:09;8.60;99.90
53802;DHT22;39709;53.334;6.534;2024-03-02T09:41:36;11.30;99.90
53802;DHT22;39709;53.334;6.534;2024-03-02T09:44:03;8.50;99.90
53802;DHT22;39709;53.334;6.534;2024-03-02T09:46:28;8.80;99.90
53802;DHT22;39709;53.334;6.534;2024-03-02T09:48:54;9.20;99.90
53802;DHT22;39709;53.334;6.534;2024-03-02T09:51:20;9.40;99.90
53802;DHT22;39709;53.334;6.534;2024-03-02T09:53:47;9.10;99.90
53802;DHT22;39709;53.334;6.534;2024-03-02T09:56:13;11.80;99.90
53802;DHT22;39709;53.334;6.534;2024-03-02T09:58:39;11.50;99.90
53802;DHT22;39709;53.334;6.534;2024-03-02T10:01:08;9.50;99.90
53802;DHT22;39709;53.334;6.534;2024-03-02T10:03:37;8.80;99.90
53802;DHT22;39709;53.334;6.534;2024-03-02T10:06:24;9.50;99.90
53802;DHT22;39709;53.334;6.534;2024-03-02T10:08:51;8.70;99.90
53802;DHT22;39709;53.334;6.534;2024-03-02T10:11:34;9.70;99.90
53802;DHT22;39709;53.334;6.534;2024-03-02T10:14:09;11.50;99.90
53802;DHT22;39709;53.334;6.534;2024-03-02T10:16:37;9.90;99.90
53802;DHT22;39709;53.334;6.534;2024-03-02T10:19:20;12.30;99.90
53802;DHT22;39709;53.334;6.534;2024-03-02T10:21:51;9.60;99.90
53802;DHT22;39709;53.334;6.534;2024-03-02T10:24:20;9.20;99.90
53802;DHT22;39709;53.334;6.534;2024-03-02T10:26:47;9.50;94.90
53802;DHT22;39709;53.334;6.534;2024-03-02T10:29:13;11.40;99.90
53802;DHT22;39709;53.334;6.534;2024-03-02T10:31:39;9.20;99.90
53802;DHT22;39709;53.334;6.534;2024-03-02T10:34:06;11.60;96.40
53802;DHT22;39709;53.334;6.534;2024-03-02T10:36:36;9.50;99.90
53802;DHT22;39709;53.334;6.534;2024-03-02T10:39:06;9.40;99.90
53802;DHT22;39709;53.334;6.534;2024-03-02T10:41:37;10.20;99.90
53802;DHT22;39709;53.334;6.534;2024-03-02T10:44:07;9.10;99.90
53802;DHT22;39709;53.334;6.534;2024-03-02T10:46:35;9.00;91.50
53802;DHT22;39709;53.334;6.534;2024-03-02T10:49:03;9.70;99.90
53802;DHT22;39709;53.334;6.534;2024-03-02T10:51:30;9.40;98.40
53802;DHT22;39709;53.334;6.534;2024-03-02T10:54:02;11.60;99.90
53802;DHT22;39709;53.334;6.534;2024-03-02T10:59:26;10.10;99.90
53802;DHT22;39709;53.334;6.534;2024-03-02T11:02:01;9.60;99.90
53802;DHT22;39709;53.334;6.534;2024-03-02T11:04:29;9.50;73.40
53802;DHT22;39709;53.334;6.534;2024-03-02T11:09:28;9.30;82.10
53802;DHT22;39709;53.334;6.534;2024-03-02T11:14:30;12.60;99.90
53802;DHT22;39709;53.334;6.534;2024-03-02T11:16:58;9.40;46.60
53802;DHT22;39709;53.334;6.534;2024-03-02T11:19:27;9.30;92.00
53802;DHT22;39709;53.334;6.534;2024-03-02T11:21:53;9.90;99.90
53802;DHT22;39709;53.334;6.534;2024-03-02T11:26:53;10.40;65.40
53802;DHT22;39709;53.334;6.534;2024-03-02T11:32:17;9.70;69.50
53802;DHT22;39709;53.334;6.534;2024-03-02T11:34:48;10.00;99.90
53802;DHT22;39709;53.334;6.534;2024-03-02T11:37:19;10.70;23.40
53802;DHT22;39709;53.334;6.534;2024-03-02T11:39:49;10.20;99.90
53802;DHT22;39709;53.334;6.534;2024-03-02T11:42:16;9.80;99.90
53802;DHT22;39709;53.334;6.534;2024-03-02T11:44:46;10.10;99.90
53802;DHT22;39709;53.334;6.534;2024-03-02T11:47:16;10.10;99.90
53802;DHT22;39709;53.334;6.534;2024-03-02T11:49:50;9.70;1.00
53802;DHT22;39709;53.334;6.534;2024-03-02T11:52:20;9.80;99.90
53802;DHT22;39709;53.334;6.534;2024-03-02T11:54:47;10.20;99.90
53802;DHT22;39709;53.334;6.534;2024-03-02T11:57:23;10.00;99.90
53802;DHT22;39709;53.334;6.534;2024-03-02T11:59:52;9.80;99.90
53802;DHT22;39709;53.334;6.534;2024-03-02T12:02:21;9.90;99.60
53802;DHT22;39709;53.334;6.534;2024-03-02T12:04:48;9.90;90.70
53802;DHT22;39709;53.334;6.534;2024-03-02T12:07:23;9.80;59.80
53802;DHT22;39709;53.334;6.534;2024-03-02T12:09:59;10.20;99.00
53802;DHT22;39709;53.334;6.534;2024-03-02T12:12:25;10.10;99.90
53802;DHT22;39709;53.334;6.534;2024-03-02T12:14:53;10.00;99.90
53802;DHT22;39709;53.334;6.534;2024-03-02T12:17:22;9.70;99.90
53802;DHT22;39709;53.334;6.534;2024-03-02T12:19:51;12.90;99.90
53802;DHT22;39709;53.334;6.534;2024-03-02T12:22:18;10.50;99.90
53802;DHT22;39709;53.334;6.534;2024-03-02T12:24:44;10.10;99.90
53802;DHT22;39709;53.334;6.534;2024-03-02T12:27:15;9.90;60.70
53802;DHT22;39709;53.334;6.534;2024-03-02T12:29:41;10.00;99.90
53802;DHT22;39709;53.334;6.534;2024-03-02T12:32:07;13.60;99.90
53802;DHT22;39709;53.334;6.534;2024-03-02T12:34:33;10.10;99.90
53802;DHT22;39709;53.334;6.534;2024-03-02T12:36:59;10.00;29.00
53802;DHT22;39709;53.334;6.534;2024-03-02T12:39:24;10.20;71.70
53802;DHT22;39709;53.334;6.534;2024-03-02T12:41:51;10.50;90.30
53802;DHT22;39709;53.334;6.534;2024-03-02T12:44:17;13.30;1.00
53802;DHT22;39709;53.334;6.534;2024-03-02T12:46:43;10.50;13.80
53802;DHT22;39709;53.334;6.534;2024-03-02T12:49:11;10.40;80.70
53802;DHT22;39709;53.334;6.534;2024-03-02T12:51:37;10.20;20.20
53802;DHT22;39709;53.334;6.534;2024-03-02T12:54:03;13.50;40.70
53802;DHT22;39709;53.334;6.534;2024-03-02T12:56:30;10.90;21.00
53802;DHT22;39709;53.334;6.534;2024-03-02T12:58:56;10.50;1.00
53802;DHT22;39709;53.334;6.534;2024-03-02T13:01:23;10.40;1.00
53802;DHT22;39709;53.334;6.534;2024-03-02T13:03:49;10.30;99.90
53802;DHT22;39709;53.334;6.534;2024-03-02T13:06:18;13.60;99.90
53802;DHT22;39709;53.334;6.534;2024-03-02T13:08:45;10.50;14.00
53802;DHT22;39709;53.334;6.534;2024-03-02T13:11:12;13.10;19.40
53802;DHT22;39709;53.334;6.534;2024-03-02T13:13:39;10.80;70.20
53802;DHT22;39709;53.334;6.534;2024-03-02T13:16:12;10.60;73.50
53802;DHT22;39709;53.334;6.534;2024-03-02T13:18:39;10.40;84.40
53802;DHT22;39709;53.334;6.534;2024-03-02T13:21:05;11.10;99.90
53802;DHT22;39709;53.334;6.534;2024-03-02T13:23:31;11.00;88.80
53802;DHT22;39709;53.334;6.534;2024-03-02T13:25:57;13.10;64.30
53802;DHT22;39709;53.334;6.534;2024-03-02T13:28:26;10.80;97.50
53802;DHT22;39709;53.334;6.534;2024-03-02T13:30:52;13.90;26.90
53802;DHT22;39709;53.334;6.534;2024-03-02T13:33:18;10.50;72.50
53802;DHT22;39709;53.334;6.534;2024-03-02T13:35:50;10.50;5.90
53802;DHT22;39709;53.334;6.534;2024-03-02T13:38:20;13.00;59.30
53802;DHT22;39709;53.334;6.534;2024-03-02T13:40:47;13.30;94.10
53802;DHT22;39709;53.334;6.534;2024-03-02T13:43:17;11.10;80.10
53802;DHT22;39709;53.334;6.534;2024-03-02T13:45:43;10.60;61.10
53802;DHT22;39709;53.334;6.534;2024-03-02T13:48:08;10.80;1.00
53802;DHT22;39709;53.334;6.534;2024-03-02T13:50:35;13.00;5.80
53802;DHT22;39709;53.334;6.534;2024-03-02T13:53:01;10.70;76.40
53802;DHT22;39709;53.334;6.534;2024-03-02T13:55:26;10.40;99.90
53802;DHT22;39709;53.334;6.534;2024-03-02T13:57:52;11.30;47.30
53802;DHT22;39709;53.334;6.534;2024-03-02T14:00:18;10.40;52.50
53802;DHT22;39709;53.334;6.534;2024-03-02T14:02:45;10.40;1.00
53802;DHT22;39709;53.334;6.534;2024-03-02T14:05:11;13.80;99.90
53802;DHT22;39709;53.334;6.534;2024-03-02T14:07:41;12.40;99.90
53802;DHT22;39709;53.334;6.534;2024-03-02T14:10:07;12.70;99.90
53802;DHT22;39709;53.334;6.534;2024-03-02T14:12:33;12.60;99.50
53802;DHT22;39709;53.334;6.534;2024-03-02T14:14:59;10.80;48.10
53802;DHT22;39709;53.334;6.534;2024-03-02T14:17:27;10.90;99.90
53802;DHT22;39709;53.334;6.534;2024-03-02T14:19:53;13.90;99.90
53802;DHT22;39709;53.334;6.534;2024-03-02T14:22:19;11.20;99.90
53802;DHT22;39709;53.334;6.534;2024-03-02T14:24:45;14.10;16.40
53802;DHT22;39709;53.334;6.534;2024-03-02T14:27:12;10.80;73.20
53802;DHT22;39709;53.334;6.534;2024-03-02T14:29:39;11.10;96.90
53802;DHT22;39709;53.334;6.534;2024-03-02T14:32:06;10.80;99.30
53802;DHT22;39709;53.334;6.534;2024-03-02T14:34:31;12.30;74.10
53802;DHT22;39709;53.334;6.534;2024-03-02T14:36:59;10.90;28.70
53802;DHT22;39709;53.334;6.534;2024-03-02T14:39:25;10.60;48.90
53802;DHT22;39709;53.334;6.534;2024-03-02T14:41:51;11.10;61.10
53802;DHT22;39709;53.334;6.534;2024-03-02T14:44:17;11.10;11.70
53802;DHT22;39709;53.334;6.534;2024-03-02T14:46:43;11.00;99.90
53802;DHT22;39709;53.334;6.534;2024-03-02T14:49:12;11.40;60.00
53802;DHT22;39709;53.334;6.534;2024-03-02T14:51:38;13.40;1.00
53802;DHT22;39709;53.334;6.534;2024-03-02T14:54:03;11.00;32.90
53802;DHT22;39709;53.334;6.534;2024-03-02T14:56:29;10.80;94.00
53802;DHT22;39709;53.334;6.534;2024-03-02T14:58:55;13.80;93.70
53802;DHT22;39709;53.334;6.534;2024-03-02T15:01:21;11.00;25.00
53802;DHT22;39709;53.334;6.534;2024-03-02T15:03:49;11.10;33.10
53802;DHT22;39709;53.334;6.534;2024-03-02T15:06:15;11.00;99.90
53802;DHT22;39709;53.334;6.534;2024-03-02T15:08:41;13.60;36.30
53802;DHT22;39709;53.334;6.534;2024-03-02T15:11:08;11.00;93.80
53802;DHT22;39709;53.334;6.534;2024-03-02T15:13:34;13.10;63.90
53802;DHT22;39709;53.334;6.534;2024-03-02T15:16:00;14.70;93.80
53802;DHT22;39709;53.334;6.534;2024-03-02T15:18:26;13.00;93.50
53802;DHT22;39709;53.334;6.534;2024-03-02T15:20:52;14.90;93.70
53802;DHT22;39709;53.334;6.534;2024-03-02T15:23:18;13.40;93.40
53802;DHT22;39709;53.334;6.534;2024-03-02T15:25:44;12.00;93.50
53802;DHT22;39709;53.334;6.534;2024-03-02T15:28:09;13.10;90.70
53802;DHT22;39709;53.334;6.534;2024-03-02T15:30:35;14.80;91.20
53802;DHT22;39709;53.334;6.534;2024-03-02T15:33:02;13.70;93.20
53802;DHT22;39709;53.334;6.534;2024-03-02T15:35:28;11.20;88.40
53802;DHT22;39709;53.334;6.534;2024-03-02T15:37:53;11.40;91.00
53802;DHT22;39709;53.334;6.534;2024-03-02T15:40:19;13.30;71.10
53802;DHT22;39709;53.334;6.534;2024-03-02T15:42:45;12.20;62.40
53802;DHT22;39709;53.334;6.534;2024-03-02T15:45:10;12.00;79.10
53802;DHT22;39709;53.334;6.534;2024-03-02T15:47:36;11.60;91.00
53802;DHT22;39709;53.334;6.534;2024-03-02T15:50:03;14.40;66.10
53802;DHT22;39709;53.334;6.534;2024-03-02T15:52:32;14.80;19.50
53802;DHT22;39709;53.334;6.534;2024-03-02T15:54:58;11.20;88.80